createdAt,value
2017-08-17T00:02:13.070Z,4.93
2017-08-17T00:04:39.873Z,5.47
2017-08-17T00:07:06.603Z,6.23
2017-08-17T00:09:33.325Z,5.60
2017-08-17T00:12:00.059Z,4.97
2017-08-17T00:14:26.863Z,6.00
2017-08-17T00:16:53.602Z,5.50
2017-08-17T00:19:20.329Z,5.53
2017-08-17T00:21:47.128Z,6.27
2017-08-17T00:24:13.851Z,5.87
2017-08-17T00:26:40.563Z,8.87
2017-08-17T00:29:07.284Z,5.23
2017-08-17T00:31:34.038Z,5.97
2017-08-17T00:34:00.776Z,5.97
2017-08-17T00:36:27.510Z,6.10
2017-08-17T00:38:54.218Z,6.90
2017-08-17T00:41:20.961Z,5.73
2017-08-17T00:43:47.766Z,6.33
2017-08-17T00:46:14.490Z,6.03
2017-08-17T00:48:41.280Z,8.27
2017-08-17T00:51:07.995Z,6.93
2017-08-17T00:53:34.732Z,5.90
2017-08-17T00:56:01.464Z,6.33
2017-08-17T00:58:28.184Z,6.60
2017-08-17T01:00:54.928Z,9.37
2017-08-17T01:03:21.658Z,5.67
2017-08-17T01:05:48.423Z,5.53
2017-08-17T01:08:15.205Z,6.30
2017-08-17T01:10:41.943Z,9.03
2017-08-17T01:13:08.702Z,8.20
2017-08-17T01:15:35.444Z,5.40
2017-08-17T01:18:02.204Z,7.53
2017-08-17T01:20:28.966Z,7.00
2017-08-17T01:22:55.721Z,5.60
2017-08-17T01:25:22.492Z,5.20
2017-08-17T01:27:49.244Z,11.10
2017-08-17T01:30:15.999Z,6.30
2017-08-17T01:32:42.753Z,6.03
2017-08-17T01:35:09.551Z,5.93
2017-08-17T01:37:36.318Z,6.67
2017-08-17T01:40:03.050Z,6.13
2017-08-17T01:42:29.794Z,6.93
2017-08-17T01:44:56.548Z,6.67
2017-08-17T01:47:25.919Z,6.03
2017-08-17T01:49:52.659Z,5.43
2017-08-17T01:52:19.426Z,6.00
2017-08-17T01:54:46.180Z,5.23
2017-08-17T01:57:12.948Z,6.10
2017-08-17T01:59:39.690Z,6.37
2017-08-17T02:02:06.435Z,6.77
2017-08-17T02:04:33.262Z,7.33
2017-08-17T02:07:00.053Z,6.10
2017-08-17T02:09:26.775Z,5.33
2017-08-17T02:11:53.487Z,7.10
2017-08-17T02:14:20.209Z,5.80
2017-08-17T02:16:46.925Z,6.47
2017-08-17T02:19:13.656Z,6.43
2017-08-17T02:21:40.404Z,7.97
2017-08-17T02:24:07.204Z,6.37
2017-08-17T02:26:33.930Z,6.37
2017-08-17T02:29:00.675Z,6.83
2017-08-17T02:31:27.393Z,7.90
2017-08-17T02:33:54.117Z,9.17
2017-08-17T02:36:20.878Z,6.67
2017-08-17T02:38:47.678Z,6.00
2017-08-17T02:41:14.401Z,5.77
2017-08-17T02:43:41.126Z,6.00
2017-08-17T02:46:07.844Z,6.40
2017-08-17T02:48:34.560Z,6.10
2017-08-17T02:51:01.299Z,6.37
2017-08-17T02:53:28.020Z,5.63
2017-08-17T02:55:54.743Z,6.90
2017-08-17T02:58:21.482Z,6.57
2017-08-17T03:00:48.277Z,7.77
2017-08-17T03:03:15.010Z,7.43
2017-08-17T03:05:41.838Z,6.00
2017-08-17T03:08:08.558Z,7.30
2017-08-17T03:10:35.280Z,6.63
2017-08-17T03:13:02.022Z,7.30
2017-08-17T03:15:28.755Z,6.40
2017-08-17T03:17:55.537Z,5.87
2017-08-17T03:20:22.294Z,12.07
2017-08-17T03:22:49.018Z,6.40
2017-08-17T03:25:15.724Z,9.43
2017-08-17T03:27:42.434Z,6.60
2017-08-17T03:30:09.173Z,7.10
2017-08-17T03:32:35.972Z,9.93
2017-08-17T03:35:02.720Z,7.77
2017-08-17T03:37:29.449Z,5.80
2017-08-17T03:39:56.167Z,6.80
2017-08-17T03:42:22.919Z,6.27
2017-08-17T03:44:49.731Z,5.50
2017-08-17T03:47:16.455Z,6.53
2017-08-17T03:49:43.192Z,6.43
2017-08-17T03:52:09.906Z,7.20
2017-08-17T03:54:36.624Z,6.33
2017-08-17T03:57:03.374Z,7.00
2017-08-17T03:59:30.106Z,7.20
2017-08-17T04:01:56.852Z,5.70
2017-08-17T04:04:23.586Z,6.73
2017-08-17T04:06:50.295Z,7.20
2017-08-17T04:09:17.036Z,6.87
2017-08-17T04:11:43.766Z,7.60
2017-08-17T04:14:10.506Z,6.50
2017-08-17T04:16:37.230Z,6.63
2017-08-17T04:19:03.974Z,9.37
2017-08-17T04:21:30.700Z,6.43
2017-08-17T04:23:57.415Z,5.80
2017-08-17T04:26:24.221Z,7.27
2017-08-17T04:28:50.988Z,6.63
2017-08-17T04:31:17.721Z,7.63
2017-08-17T04:33:44.561Z,7.87
2017-08-17T04:36:11.324Z,8.83
2017-08-17T04:38:38.052Z,8.60
2017-08-17T04:41:04.855Z,7.40
2017-08-17T04:43:31.590Z,6.37
2017-08-17T04:45:58.321Z,7.40
2017-08-17T04:48:25.061Z,7.67
2017-08-17T04:50:51.816Z,7.30
2017-08-17T04:53:18.548Z,8.23
2017-08-17T04:55:45.283Z,7.30
2017-08-17T04:58:23.679Z,6.70
2017-08-17T05:00:50.491Z,7.97
2017-08-17T05:03:17.229Z,7.10
2017-08-17T05:05:43.953Z,9.50
2017-08-17T05:08:10.748Z,8.40
2017-08-17T05:10:37.553Z,8.87
2017-08-17T05:13:04.269Z,8.03
2017-08-17T05:15:31.027Z,8.03
2017-08-17T05:17:57.763Z,8.20
2017-08-17T05:20:24.547Z,7.97
2017-08-17T05:22:51.269Z,9.40
2017-08-17T05:25:18.070Z,8.33
2017-08-17T05:27:44.813Z,8.63
2017-08-17T05:30:11.557Z,8.73
2017-08-17T05:32:38.294Z,7.93
2017-08-17T05:35:05.019Z,9.03
2017-08-17T05:37:31.778Z,8.20
2017-08-17T05:39:58.485Z,8.40
2017-08-17T05:42:25.210Z,10.63
2017-08-17T05:44:51.954Z,8.40
2017-08-17T05:47:18.674Z,7.70
2017-08-17T05:49:45.402Z,8.67
2017-08-17T05:52:12.145Z,8.43
2017-08-17T05:54:38.868Z,8.77
2017-08-17T05:57:05.621Z,8.33
2017-08-17T05:59:32.348Z,8.47
2017-08-17T06:01:59.136Z,7.90
2017-08-17T06:04:25.857Z,8.43
2017-08-17T06:06:52.583Z,7.10
2017-08-17T06:09:19.310Z,12.23
2017-08-17T06:11:46.028Z,7.63
2017-08-17T06:14:12.767Z,7.90
2017-08-17T06:16:39.554Z,7.30
2017-08-17T06:19:06.288Z,10.13
2017-08-17T06:21:33.029Z,8.90
2017-08-17T06:23:59.749Z,8.33
2017-08-17T06:26:26.542Z,8.17
2017-08-17T06:28:53.282Z,7.40
2017-08-17T06:31:20.024Z,8.80
2017-08-17T06:33:46.742Z,6.97
2017-08-17T06:36:13.499Z,7.83
2017-08-17T06:38:40.308Z,7.10
2017-08-17T06:41:07.039Z,8.67
2017-08-17T06:43:33.764Z,8.27
2017-08-17T06:46:00.510Z,7.57
2017-08-17T06:48:27.249Z,7.87
2017-08-17T06:50:53.979Z,8.57
2017-08-17T06:53:20.726Z,8.13
2017-08-17T06:55:47.440Z,8.50
2017-08-17T06:58:14.271Z,7.77
2017-08-17T07:00:40.987Z,7.80
2017-08-17T07:03:07.720Z,6.60
2017-08-17T07:05:34.434Z,9.07
2017-08-17T07:08:01.237Z,6.83
2017-08-17T07:10:27.969Z,7.80
2017-08-17T07:12:54.854Z,9.57
2017-08-17T07:15:21.573Z,7.33
2017-08-17T07:17:48.310Z,6.73
2017-08-17T07:20:15.050Z,6.23
2017-08-17T07:22:41.768Z,8.77
2017-08-17T07:25:08.585Z,6.97
2017-08-17T07:27:35.315Z,7.87
2017-08-17T07:30:02.043Z,7.23
2017-08-17T07:32:28.770Z,6.70
2017-08-17T07:34:55.510Z,6.40
2017-08-17T07:37:22.229Z,10.43
2017-08-17T07:39:48.953Z,7.37
2017-08-17T07:42:15.676Z,7.13
2017-08-17T07:44:42.386Z,6.50
2017-08-17T07:47:09.098Z,6.47
2017-08-17T07:49:35.830Z,6.30
2017-08-17T07:52:02.540Z,6.00
2017-08-17T07:54:29.254Z,6.10
2017-08-17T07:56:56.021Z,5.83
2017-08-17T07:59:22.795Z,5.50
2017-08-17T08:01:49.515Z,6.50
2017-08-17T08:04:16.278Z,6.00
2017-08-17T08:06:43.099Z,6.57
2017-08-17T08:09:09.831Z,5.50
2017-08-17T08:11:36.561Z,5.00
2017-08-17T08:14:03.284Z,7.10
2017-08-17T08:16:30.006Z,6.23
2017-08-17T08:18:56.806Z,5.80
2017-08-17T08:21:23.509Z,7.07
2017-08-17T08:23:50.225Z,5.63
2017-08-17T08:26:16.946Z,5.70
2017-08-17T08:28:43.650Z,6.60
2017-08-17T08:31:10.352Z,5.37
2017-08-17T08:33:37.092Z,5.33
2017-08-17T08:36:03.798Z,6.00
2017-08-17T08:38:30.505Z,5.27
2017-08-17T08:40:57.235Z,6.13
2017-08-17T08:43:23.952Z,4.97
2017-08-17T08:45:50.662Z,5.67
2017-08-17T08:48:17.396Z,5.00
2017-08-17T08:50:44.138Z,6.40
2017-08-17T08:53:10.850Z,5.63
2017-08-17T08:55:37.564Z,5.00
2017-08-17T08:58:04.361Z,4.20
2017-08-17T09:00:31.111Z,5.30
2017-08-17T09:02:57.859Z,6.13
2017-08-17T09:05:24.598Z,5.10
2017-08-17T09:07:51.319Z,6.50
2017-08-17T09:10:18.047Z,5.40
2017-08-17T09:12:44.843Z,7.97
2017-08-17T09:15:11.567Z,6.93
2017-08-17T09:17:38.316Z,4.00
2017-08-17T09:20:05.046Z,4.60
2017-08-17T09:22:31.787Z,3.90
2017-08-17T09:24:58.586Z,4.07
2017-08-17T09:27:25.333Z,7.10
2017-08-17T09:29:52.062Z,4.70
2017-08-17T09:32:18.799Z,5.73
2017-08-17T09:34:45.552Z,4.63
2017-08-17T09:37:12.291Z,3.93
2017-08-17T09:39:39.010Z,3.67
2017-08-17T09:42:05.744Z,3.70
2017-08-17T09:44:32.486Z,4.30
2017-08-17T09:46:59.235Z,4.40
2017-08-17T09:49:26.067Z,3.30
2017-08-17T09:51:52.853Z,3.67
2017-08-17T09:54:19.597Z,4.93
2017-08-17T09:56:46.329Z,3.93
2017-08-17T09:59:13.052Z,3.83
2017-08-17T10:01:39.782Z,5.23
2017-08-17T10:04:06.548Z,4.43
2017-08-17T10:06:33.260Z,4.63
2017-08-17T10:08:59.978Z,4.77
2017-08-17T10:11:26.771Z,4.40
2017-08-17T10:13:53.504Z,5.10
2017-08-17T10:16:20.223Z,4.00
2017-08-17T10:18:46.947Z,5.33
2017-08-17T10:21:13.677Z,5.07
2017-08-17T10:23:40.415Z,4.27
2017-08-17T10:26:07.155Z,4.77
2017-08-17T10:28:33.886Z,5.07
2017-08-17T10:31:00.599Z,4.13
2017-08-17T10:33:27.327Z,4.47
2017-08-17T10:35:54.033Z,4.57
2017-08-17T10:38:20.753Z,4.37
2017-08-17T10:40:47.475Z,4.37
2017-08-17T10:43:14.195Z,6.60
2017-08-17T10:45:40.906Z,4.40
2017-08-17T10:48:07.616Z,4.17
2017-08-17T10:50:34.320Z,6.30
2017-08-17T10:53:01.045Z,5.30
2017-08-17T10:55:27.759Z,4.90
2017-08-17T10:57:54.486Z,4.90
2017-08-17T11:00:21.228Z,8.20
2017-08-17T11:02:47.947Z,4.80
2017-08-17T11:05:14.657Z,4.37
2017-08-17T11:07:41.405Z,4.93
2017-08-17T11:10:08.130Z,5.27
2017-08-17T11:12:34.843Z,4.90
2017-08-17T11:15:01.569Z,4.50
2017-08-17T11:17:28.286Z,4.53
2017-08-17T11:19:54.987Z,4.53
2017-08-17T11:22:21.698Z,4.70
2017-08-17T11:24:48.433Z,4.23
2017-08-17T11:27:15.143Z,7.00
2017-08-17T11:29:41.857Z,5.03
2017-08-17T11:32:08.565Z,4.97
2017-08-17T11:34:35.303Z,3.87
2017-08-17T11:37:02.020Z,5.03
2017-08-17T11:39:28.725Z,4.33
2017-08-17T11:41:55.441Z,5.13
2017-08-17T11:44:22.170Z,4.50
2017-08-17T11:46:48.889Z,7.40
2017-08-17T11:49:15.601Z,4.77
2017-08-17T11:51:42.336Z,4.07
2017-08-17T11:54:09.047Z,4.73
2017-08-17T11:56:35.783Z,4.87
2017-08-17T11:59:02.501Z,5.67
2017-08-17T12:01:29.207Z,7.13
2017-08-17T12:03:55.913Z,4.60
2017-08-17T12:06:22.632Z,5.17
2017-08-17T12:08:49.371Z,4.60
2017-08-17T12:11:16.098Z,4.17
2017-08-17T12:13:42.810Z,5.00
2017-08-17T12:16:09.544Z,4.03
2017-08-17T12:18:36.247Z,4.53
2017-08-17T12:21:02.956Z,4.90
2017-08-17T12:23:29.676Z,5.03
2017-08-17T12:25:56.407Z,5.90
2017-08-17T12:28:23.168Z,4.80
2017-08-17T12:30:49.883Z,4.43
2017-08-17T12:33:16.596Z,4.40
2017-08-17T12:35:43.335Z,4.77
2017-08-17T12:38:10.064Z,3.97
2017-08-17T12:40:36.780Z,4.90
2017-08-17T12:43:03.502Z,4.53
2017-08-17T12:45:30.206Z,4.43
2017-08-17T12:47:56.940Z,5.20
2017-08-17T12:50:23.690Z,5.23
2017-08-17T12:52:50.418Z,4.60
2017-08-17T12:55:17.124Z,6.00
2017-08-17T12:57:43.853Z,4.33
2017-08-17T13:00:10.589Z,5.17
2017-08-17T13:02:37.306Z,5.83
2017-08-17T13:05:04.020Z,4.30
2017-08-17T13:07:30.722Z,4.27
2017-08-17T13:09:57.431Z,4.77
2017-08-17T13:12:24.165Z,4.07
2017-08-17T13:14:50.889Z,4.73
2017-08-17T13:17:17.591Z,4.70
2017-08-17T13:19:44.318Z,5.00
2017-08-17T13:22:11.041Z,10.60
2017-08-17T13:24:37.812Z,4.13
2017-08-17T13:27:04.530Z,4.10
2017-08-17T13:29:31.251Z,7.10
2017-08-17T13:31:57.949Z,5.13
2017-08-17T13:34:24.677Z,4.50
2017-08-17T13:36:51.386Z,4.27
2017-08-17T13:39:18.097Z,4.37
2017-08-17T13:41:44.847Z,4.70
2017-08-17T13:44:11.566Z,4.50
2017-08-17T13:46:38.270Z,3.90
2017-08-17T13:49:04.994Z,3.80
2017-08-17T13:51:31.791Z,3.93
2017-08-17T13:53:58.515Z,4.60
2017-08-17T13:56:25.255Z,4.37
2017-08-17T13:58:52.003Z,4.20
2017-08-17T14:01:18.715Z,4.73
2017-08-17T14:03:45.440Z,4.47
2017-08-17T14:06:12.170Z,4.40
2017-08-17T14:08:38.885Z,4.10
2017-08-17T14:11:05.622Z,3.93
2017-08-17T14:13:32.466Z,4.93
2017-08-17T14:15:59.186Z,4.53
2017-08-17T14:18:25.931Z,5.83
2017-08-17T14:20:52.735Z,4.10
2017-08-17T14:23:19.451Z,4.73
2017-08-17T14:25:46.157Z,5.60
2017-08-17T14:28:12.882Z,4.33
2017-08-17T14:30:39.601Z,3.67
2017-08-17T14:33:06.307Z,3.77
2017-08-17T14:35:33.007Z,4.57
2017-08-17T14:37:59.708Z,4.30
2017-08-17T14:40:26.412Z,4.03
2017-08-17T14:42:53.138Z,4.63
2017-08-17T14:45:19.842Z,4.40
2017-08-17T14:47:46.554Z,4.43
2017-08-17T14:50:13.274Z,4.37
2017-08-17T14:52:40.007Z,3.30
2017-08-17T14:55:06.730Z,3.23
2017-08-17T14:57:33.457Z,4.10
2017-08-17T15:00:00.171Z,4.17
2017-08-17T15:02:26.885Z,3.90
2017-08-17T15:04:53.610Z,3.93
2017-08-17T15:07:20.343Z,4.33
2017-08-17T15:09:47.065Z,4.90
2017-08-17T15:12:13.783Z,5.80
2017-08-17T15:14:40.495Z,4.97
2017-08-17T15:17:07.245Z,4.33
2017-08-17T15:19:34.016Z,4.60
2017-08-17T15:22:00.719Z,5.67
2017-08-17T15:24:27.471Z,4.20
2017-08-17T15:26:54.182Z,4.10
2017-08-17T15:29:20.900Z,4.53
2017-08-17T15:31:47.626Z,4.63
2017-08-17T15:34:14.575Z,4.53
2017-08-17T15:36:41.406Z,4.37
2017-08-17T15:39:08.142Z,7.33
2017-08-17T15:41:34.862Z,5.03
2017-08-17T15:44:01.580Z,4.67
2017-08-17T15:46:28.354Z,4.20
2017-08-17T15:48:55.059Z,4.53
2017-08-17T15:51:21.786Z,4.77
2017-08-17T15:53:48.501Z,4.50
2017-08-17T15:56:15.230Z,4.53
2017-08-17T15:58:41.976Z,4.97
2017-08-17T16:01:08.692Z,5.37
2017-08-17T16:03:35.447Z,5.00
2017-08-17T16:06:02.175Z,4.20
2017-08-17T16:08:28.898Z,4.67
2017-08-17T16:10:55.629Z,4.97
2017-08-17T16:13:22.353Z,4.67
2017-08-17T16:15:49.104Z,5.50
2017-08-17T16:18:15.881Z,6.37
2017-08-17T16:20:42.598Z,5.67
2017-08-17T16:23:09.310Z,5.40
2017-08-17T16:25:36.023Z,7.37
2017-08-17T16:28:02.750Z,5.27
2017-08-17T16:30:29.464Z,4.30
2017-08-17T16:32:56.171Z,4.87
2017-08-17T16:35:22.870Z,5.03
2017-08-17T16:37:49.615Z,6.93
2017-08-17T16:40:16.334Z,5.03
2017-08-17T16:42:43.273Z,5.40
2017-08-17T16:45:09.986Z,4.57
2017-08-17T16:47:36.719Z,4.87
2017-08-17T16:50:03.450Z,5.20
2017-08-17T16:52:30.166Z,5.50
2017-08-17T16:54:56.877Z,5.03
2017-08-17T16:57:23.604Z,6.03
2017-08-17T16:59:50.340Z,11.80
2017-08-17T17:02:17.083Z,5.73
2017-08-17T17:04:43.822Z,5.00
2017-08-17T17:07:10.541Z,4.80
2017-08-17T17:09:37.261Z,4.70
2017-08-17T17:12:03.978Z,12.10
2017-08-17T17:14:30.685Z,6.63
2017-08-17T17:16:57.394Z,5.00
2017-08-17T17:19:24.103Z,9.90
2017-08-17T17:21:50.856Z,4.63
2017-08-17T17:24:17.613Z,4.93
2017-08-17T17:26:44.334Z,5.33
2017-08-17T17:29:11.070Z,4.90
2017-08-17T17:31:37.804Z,5.63
2017-08-17T17:34:04.525Z,6.30
2017-08-17T17:36:31.945Z,8.93
2017-08-17T17:38:58.834Z,5.43
2017-08-17T17:41:25.606Z,5.87
2017-08-17T17:43:52.316Z,9.33
2017-08-17T17:46:19.032Z,5.43
2017-08-17T17:48:45.738Z,5.10
2017-08-17T17:51:12.459Z,6.30
2017-08-17T17:53:39.204Z,5.40
2017-08-17T17:56:06.277Z,6.00
2017-08-17T17:58:33.000Z,6.30
2017-08-17T18:00:59.752Z,5.30
2017-08-17T18:03:26.454Z,6.33
2017-08-17T18:05:53.198Z,6.33
2017-08-17T18:08:19.926Z,6.90
2017-08-17T18:10:46.647Z,5.37
2017-08-17T18:13:13.384Z,6.27
2017-08-17T18:15:40.105Z,6.13
2017-08-17T18:18:06.814Z,7.07
2017-08-17T18:20:33.554Z,6.30
2017-08-17T18:23:00.268Z,6.30
2017-08-17T18:25:26.988Z,6.37
2017-08-17T18:27:53.727Z,6.90
2017-08-17T18:30:20.434Z,6.70
2017-08-17T18:32:47.154Z,5.80
2017-08-17T18:35:13.898Z,6.30
2017-08-17T18:37:40.607Z,5.70
2017-08-17T18:40:07.322Z,6.43
2017-08-17T18:42:34.035Z,8.63
2017-08-17T18:45:00.772Z,6.47
2017-08-17T18:47:27.491Z,8.33
2017-08-17T18:49:54.230Z,6.90
2017-08-17T18:52:20.939Z,9.80
2017-08-17T18:54:47.656Z,6.70
2017-08-17T18:57:14.378Z,6.70
2017-08-17T18:59:41.168Z,7.43
2017-08-17T19:02:07.885Z,7.27
2017-08-17T19:04:34.607Z,7.00
2017-08-17T19:07:01.347Z,7.37
2017-08-17T19:09:28.102Z,8.83
2017-08-17T19:11:55.195Z,7.30
2017-08-17T19:14:21.927Z,6.83
2017-08-17T19:16:48.671Z,8.33
2017-08-17T19:19:15.386Z,6.60
2017-08-17T19:21:42.094Z,7.07
2017-08-17T19:24:08.817Z,7.10
2017-08-17T19:26:35.554Z,8.93
2017-08-17T19:29:40.224Z,8.97
2017-08-17T19:32:06.968Z,8.07
2017-08-17T19:34:33.693Z,7.60
2017-08-17T19:37:00.433Z,6.50
2017-08-17T19:39:27.182Z,6.33
2017-08-17T19:41:53.899Z,6.60
2017-08-17T19:44:20.637Z,7.70
2017-08-17T19:46:47.351Z,7.27
2017-08-17T19:49:14.094Z,6.57
2017-08-17T19:51:40.830Z,6.63
2017-08-17T19:54:07.915Z,6.90
2017-08-17T19:56:34.647Z,7.00
2017-08-17T19:59:01.383Z,7.87
2017-08-17T20:01:28.158Z,8.00
2017-08-17T20:03:54.879Z,9.07
2017-08-17T20:06:21.618Z,7.60
2017-08-17T20:08:48.343Z,7.20
2017-08-17T20:11:15.054Z,8.57
2017-08-17T20:13:41.772Z,7.77
2017-08-17T20:16:08.512Z,7.10
2017-08-17T20:18:35.232Z,7.73
2017-08-17T20:21:01.988Z,7.13
2017-08-17T20:23:28.701Z,6.93
2017-08-17T20:25:55.425Z,6.70
2017-08-17T20:28:22.168Z,7.93
2017-08-17T20:30:48.907Z,7.63
2017-08-17T20:33:15.653Z,9.20
2017-08-17T20:35:42.370Z,7.10
2017-08-17T20:38:09.136Z,8.07
2017-08-17T20:40:35.924Z,10.47
2017-08-17T20:43:02.656Z,9.00
2017-08-17T20:45:29.414Z,7.50
2017-08-17T20:47:56.153Z,7.57
2017-08-17T20:50:22.918Z,6.90
2017-08-17T20:52:49.669Z,9.47
2017-08-17T20:55:16.391Z,7.30
2017-08-17T20:57:43.136Z,8.03
2017-08-17T21:00:09.872Z,8.63
2017-08-17T21:02:36.596Z,7.63
2017-08-17T21:05:03.330Z,7.50
2017-08-17T21:07:30.050Z,7.80
2017-08-17T21:09:56.760Z,7.30
2017-08-17T21:12:23.477Z,7.77
2017-08-17T21:14:50.207Z,7.03
2017-08-17T21:17:16.942Z,8.00
2017-08-17T21:19:43.663Z,7.50
2017-08-17T21:22:10.388Z,8.17
2017-08-17T21:24:37.106Z,7.83
2017-08-17T21:27:03.813Z,8.60
2017-08-17T21:29:30.539Z,8.43
2017-08-17T21:31:57.261Z,9.30
2017-08-17T21:34:23.999Z,8.10
2017-08-17T21:36:50.715Z,7.90
2017-08-17T21:39:17.444Z,8.03
2017-08-17T21:41:44.156Z,7.40
2017-08-17T21:44:10.880Z,8.20
2017-08-17T21:46:37.602Z,8.37
2017-08-17T21:49:04.329Z,7.67
2017-08-17T21:51:31.050Z,8.80
2017-08-17T21:53:57.776Z,10.70
2017-08-17T21:56:24.491Z,8.00
2017-08-17T21:58:51.221Z,10.93
2017-08-17T22:01:17.950Z,7.63
2017-08-17T22:03:44.667Z,8.37
2017-08-17T22:06:11.414Z,7.77
2017-08-17T22:08:38.122Z,7.17
2017-08-17T22:11:04.841Z,7.77
2017-08-17T22:13:31.636Z,8.23
2017-08-17T22:15:58.370Z,7.80
2017-08-17T22:18:25.111Z,7.57
2017-08-17T22:20:51.867Z,8.60
2017-08-17T22:23:18.679Z,8.10
2017-08-17T22:25:45.433Z,8.27
2017-08-17T22:28:12.170Z,11.30
2017-08-17T22:30:38.966Z,7.80
2017-08-17T22:33:05.764Z,7.87
2017-08-17T22:35:32.503Z,8.60
2017-08-17T22:37:59.223Z,11.17
2017-08-17T22:40:25.950Z,8.60
2017-08-17T22:42:52.695Z,8.20
2017-08-17T22:45:19.433Z,8.20
2017-08-17T22:47:46.183Z,8.40
2017-08-17T22:50:12.897Z,7.60
2017-08-17T22:52:39.643Z,9.20
2017-08-17T22:55:06.371Z,8.03
2017-08-17T22:57:33.141Z,8.63
2017-08-17T22:59:59.933Z,9.17
2017-08-17T23:02:26.671Z,8.90
2017-08-17T23:04:53.420Z,8.77
2017-08-17T23:07:20.222Z,8.10
2017-08-17T23:09:46.954Z,8.13
2017-08-17T23:12:13.680Z,8.03
2017-08-17T23:14:40.398Z,9.23
2017-08-17T23:17:07.227Z,11.00
2017-08-17T23:19:33.952Z,8.17
2017-08-17T23:22:00.712Z,8.07
2017-08-17T23:24:27.443Z,8.60
2017-08-17T23:26:54.250Z,8.07
2017-08-17T23:29:20.994Z,8.57
2017-08-17T23:31:47.714Z,8.20
2017-08-17T23:34:14.516Z,8.40
2017-08-17T23:36:41.230Z,9.20
2017-08-17T23:39:07.958Z,9.00
2017-08-17T23:41:34.676Z,8.20
2017-08-17T23:44:01.475Z,12.73
2017-08-17T23:46:28.187Z,9.00
2017-08-17T23:48:54.935Z,9.37
2017-08-17T23:51:21.658Z,8.10
2017-08-17T23:53:48.379Z,8.20
2017-08-17T23:56:15.108Z,8.43
2017-08-17T23:58:41.834Z,8.53
